Weather at Svalbard Airport, Longyear

Public forecast

Using degrees Celsius for public forecast. Weather courtesy of forecast.io.

Current aviation weather report (METAR) for Svalbard Airport, Longyear

Retrieved 2020/10/27 11:20 UTC (0 seconds ago):

ENSB 271120Z 05009KT 9999 -SN FEW020 BKN025 M01/M04 Q0994 NOSIG RMK WIND 1400FT 07009KT

Aviation forecast (TAF) for Svalbard Airport, Longyear

Retrieved 2020/10/27 06:57 UTC (4 hours ago):

TAF ENSB 270500Z 2706/2806 13005KT 9999 BKN040 TEMPO 2718/2806 4000 -SN VV012